Time;durP1;ratioP1;P1;durP2;ratioP2;P2;SDS_P1;SDS_P2;PMS_P1;PMS_P2;Temp;Humidity;BMP_temperature;BMP_pressure;BME280_temperature;BME280_humidity;BME280_pressure;Samples;Min_cycle;Max_cycle;Signal;HPM_P1;HPM_P2
2023/12/09 00:00:05;;;;;;;14.98;9.27;;;7.00;99.90;;;;;;4925629;29;20314;-76
2023/12/09 00:02:30;;;;;;;14.75;9.30;;;7.00;99.90;;;;;;4926513;29;20294;-75
2023/12/09 00:04:56;;;;;;;14.10;9.48;;;7.10;99.90;;;;;;4929199;29;20042;-76
2023/12/09 00:07:21;;;;;;;16.45;9.32;;;7.10;99.90;;;;;;4926702;29;20051;-75
2023/12/09 00:09:50;;;;;;;14.13;9.32;;;7.10;99.90;;;;;;4926381;29;20024;-75
2023/12/09 00:12:17;;;;;;;13.75;8.90;;;7.10;99.90;;;;;;4925670;29;20035;-76
2023/12/09 00:14:43;;;;;;;18.42;9.93;;;7.10;99.90;;;;;;4909339;29;20040;-75
2023/12/09 00:17:08;;;;;;;16.88;9.93;;;7.10;99.90;;;;;;4926909;29;20024;-78
2023/12/09 00:19:34;;;;;;;15.38;10.15;;;7.10;99.90;;;;;;4942312;29;20031;-75
2023/12/09 00:22:00;;;;;;;14.93;9.35;;;7.10;99.90;;;;;;4945403;29;20028;-77
2023/12/09 00:24:26;;;;;;;18.23;10.30;;;7.00;99.90;;;;;;4929785;29;20374;-76
2023/12/09 00:26:52;;;;;;;16.10;9.65;;;7.10;99.90;;;;;;4926533;29;20040;-76
2023/12/09 00:29:18;;;;;;;15.10;9.55;;;7.00;99.90;;;;;;4926617;29;20038;-76
2023/12/09 00:31:44;;;;;;;16.83;10.15;;;7.00;99.90;;;;;;4925776;29;20211;-76
2023/12/09 00:34:09;;;;;;;18.73;10.13;;;7.00;99.90;;;;;;4936877;29;20243;-76
2023/12/09 00:36:38;;;;;;;16.02;9.80;;;7.00;99.90;;;;;;4944940;29;20035;-77
2023/12/09 00:39:05;;;;;;;15.02;9.88;;;7.00;99.90;;;;;;4943425;29;20036;-76
2023/12/09 00:41:31;;;;;;;17.02;10.75;;;7.00;99.90;;;;;;4924539;29;20120;-77
2023/12/09 00:43:56;;;;;;;15.45;9.98;;;7.00;99.90;;;;;;4926450;29;20032;-75
2023/12/09 00:46:22;;;;;;;17.50;10.52;;;7.00;99.90;;;;;;4925263;29;20325;-75
2023/12/09 00:48:53;;;;;;;15.05;10.27;;;6.90;99.90;;;;;;4924731;29;20314;-77
2023/12/09 00:51:19;;;;;;;15.27;10.25;;;6.90;99.90;;;;;;4926361;29;20221;-77
2023/12/09 00:53:45;;;;;;;18.05;11.43;;;6.90;99.90;;;;;;4924461;29;20131;-77
2023/12/09 00:56:11;;;;;;;17.30;10.32;;;6.90;99.90;;;;;;4929434;29;20079;-77
2023/12/09 00:58:36;;;;;;;18.00;11.05;;;6.90;99.90;;;;;;4925396;29;20062;-76
2023/12/09 01:01:02;;;;;;;20.13;11.57;;;6.90;99.90;;;;;;4925930;29;20087;-76
2023/12/09 01:03:28;;;;;;;15.75;10.13;;;6.90;99.90;;;;;;4925671;29;20028;-76
2023/12/09 01:05:53;;;;;;;15.52;10.43;;;6.90;99.90;;;;;;4926003;29;20043;-75
2023/12/09 01:08:20;;;;;;;18.27;11.90;;;6.90;99.90;;;;;;4926510;29;20258;-76
2023/12/09 01:11:08;;;;;;;15.95;10.43;;;6.90;99.90;;;;;;4926440;29;20043;-76
2023/12/09 01:13:33;;;;;;;15.43;10.65;;;7.00;99.90;;;;;;4929458;29;20039;-76
2023/12/09 01:15:59;;;;;;;16.45;10.45;;;6.90;99.90;;;;;;4928998;29;20036;-75
2023/12/09 01:18:31;;;;;;;16.83;10.50;;;6.90;99.90;;;;;;4929919;29;20103;-76
2023/12/09 01:20:56;;;;;;;16.90;10.32;;;6.90;99.90;;;;;;4932368;29;20226;-77
2023/12/09 01:23:22;;;;;;;16.15;10.50;;;6.90;99.90;;;;;;4929639;29;20038;-76
2023/12/09 01:25:48;;;;;;;16.05;10.73;;;6.80;99.90;;;;;;4930980;29;20485;-75
2023/12/09 01:28:13;;;;;;;16.15;10.27;;;6.80;99.90;;;;;;4928940;29;20274;-75
2023/12/09 01:30:39;;;;;;;20.23;11.15;;;6.80;99.90;;;;;;4928845;29;20199;-75
2023/12/09 09:40:11;;;;;;;6.93;3.50;;;8.20;99.90;;;;;;5676605;23;20071;-72
2023/12/09 09:42:50;;;;;;;7.90;4.00;;;8.30;99.90;;;;;;4985788;28;20256;-73
2023/12/09 09:45:25;;;;;;;6.82;4.40;;;8.50;99.90;;;;;;4985330;28;20054;-73
2023/12/09 09:47:53;;;;;;;8.90;3.85;;;8.50;99.90;;;;;;4986694;28;20039;-73
2023/12/09 09:50:21;;;;;;;7.90;3.85;;;8.40;99.90;;;;;;4986546;28;20051;-75
2023/12/09 09:52:48;;;;;;;;;;;8.30;99.90;;;;;;4986047;28;20284;-74
2023/12/09 09:55:16;;;;;;;8.93;4.35;;;8.30;99.90;;;;;;4969630;28;19910;-73
2023/12/09 09:57:43;;;;;;;7.75;3.92;;;8.40;99.90;;;;;;4987044;28;20043;-72
2023/12/09 10:00:13;;;;;;;8.20;4.35;;;8.40;99.90;;;;;;4985916;28;20293;-74
2023/12/09 10:02:43;;;;;;;6.95;4.10;;;8.30;99.90;;;;;;4986344;28;20030;-74
2023/12/09 10:05:09;;;;;;;9.80;4.35;;;8.50;99.90;;;;;;4974096;28;20309;-75
2023/12/09 10:07:39;;;;;;;10.63;5.22;;;8.50;99.90;;;;;;4981081;28;20064;-72
2023/12/09 10:10:06;;;;;;;9.25;4.97;;;8.40;99.90;;;;;;4974428;28;20023;-72
2023/12/09 10:12:32;;;;;;;6.63;4.43;;;8.40;99.90;;;;;;4959384;29;20027;-73
2023/12/09 10:15:01;;;;;;;8.65;4.82;;;8.40;99.90;;;;;;4950192;29;20047;-73
2023/12/09 10:17:27;;;;;;;9.63;4.65;;;8.40;99.90;;;;;;4983825;28;20366;-74
2023/12/09 10:19:57;;;;;;;8.05;4.50;;;8.40;99.90;;;;;;4986739;28;20105;-72
2023/12/09 10:22:27;;;;;;;8.40;4.50;;;8.50;99.90;;;;;;4986391;28;20027;-74
2023/12/09 10:24:54;;;;;;;9.45;5.20;;;8.60;99.90;;;;;;4969397;28;20042;-74
2023/12/09 10:27:24;;;;;;;8.45;4.50;;;8.60;99.90;;;;;;4980208;28;20280;-73
2023/12/09 10:29:51;;;;;;;8.10;4.25;;;8.70;99.90;;;;;;4978207;28;20058;-75
2023/12/09 10:32:19;;;;;;;8.52;4.65;;;8.70;99.90;;;;;;4966526;29;20053;-73
2023/12/09 10:34:45;;;;;;;6.70;4.43;;;8.60;99.90;;;;;;4980883;28;20073;-78
2023/12/09 10:37:12;;;;;;;10.68;4.80;;;8.70;99.90;;;;;;4985647;28;20023;-74
2023/12/09 10:39:45;;;;;;;37.75;13.10;;;8.70;99.90;;;;;;4986366;28;20046;-72
2023/12/09 10:42:11;;;;;;;9.35;5.35;;;8.80;99.90;;;;;;5005365;28;20038;-72
2023/12/09 10:44:36;;;;;;;9.40;5.00;;;9.00;99.90;;;;;;5005398;28;20026;-72
2023/12/09 10:47:03;;;;;;;11.65;5.97;;;9.10;99.90;;;;;;4995930;28;20081;-73
2023/12/09 10:49:30;;;;;;;10.60;5.10;;;9.20;99.90;;;;;;4988812;28;20208;-72
2023/12/09 10:51:56;;;;;;;7.97;4.53;;;9.30;99.90;;;;;;5005361;28;20245;-72
2023/12/09 10:54:22;;;;;;;8.13;4.75;;;9.40;99.90;;;;;;5004853;28;20037;-76
2023/12/09 10:56:49;;;;;;;9.35;4.78;;;9.40;99.90;;;;;;4983453;28;20039;-74
2023/12/09 10:59:17;;;;;;;9.93;4.65;;;9.30;99.90;;;;;;4996154;28;20098;-73
2023/12/09 11:01:47;;;;;;;7.40;4.22;;;9.40;99.90;;;;;;4990748;28;20026;-73
2023/12/09 11:04:14;;;;;;;9.43;4.40;;;9.50;99.90;;;;;;5004817;28;20030;-72
2023/12/09 11:06:42;;;;;;;7.60;4.22;;;9.50;99.90;;;;;;4987934;28;20022;-72
2023/12/09 11:09:08;;;;;;;7.53;3.83;;;9.60;99.90;;;;;;5004968;28;20110;-75
2023/12/09 11:11:35;;;;;;;6.70;3.75;;;9.70;99.90;;;;;;5005210;28;20517;-74
2023/12/09 11:14:11;;;;;;;7.93;4.05;;;9.80;99.90;;;;;;5000642;28;20320;-74
2023/12/09 11:16:42;;;;;;;6.90;3.70;;;10.00;99.90;;;;;;4985658;28;20035;-75
2023/12/09 11:19:16;;;;;;;6.65;3.88;;;10.40;99.90;;;;;;4985082;28;20041;-72
2023/12/09 11:21:46;;;;;;;6.60;3.70;;;10.60;99.90;;;;;;4985459;28;20019;-74
2023/12/09 11:24:17;;;;;;;7.05;4.22;;;10.70;99.90;;;;;;4984936;28;20043;-74
2023/12/09 11:26:47;;;;;;;8.57;4.03;;;10.40;99.90;;;;;;4985324;28;20026;-75
2023/12/09 11:29:15;;;;;;;7.78;4.00;;;10.20;99.90;;;;;;4985410;28;20041;-74
2023/12/09 11:31:48;;;;;;;6.38;4.07;;;10.00;99.90;;;;;;4968274;28;20102;-75
2023/12/09 11:34:21;;;;;;;8.43;4.13;;;9.90;99.90;;;;;;5004431;28;20287;-75
2023/12/09 11:36:48;;;;;;;8.23;4.30;;;9.90;99.90;;;;;;5007941;28;20073;-72
2023/12/09 11:39:22;;;;;;;9.70;3.80;;;9.70;99.90;;;;;;4987669;28;20216;-74
2023/12/09 11:41:49;;;;;;;6.93;3.75;;;9.70;99.90;;;;;;4997142;28;20058;-74
2023/12/09 11:44:15;;;;;;;6.63;3.83;;;9.70;99.90;;;;;;4992826;28;20097;-74
2023/12/09 11:46:42;;;;;;;6.43;3.72;;;9.60;99.90;;;;;;4993079;28;20030;-73
2023/12/09 11:49:08;;;;;;;5.85;3.97;;;9.60;99.90;;;;;;5000962;28;20053;-73
2023/12/09 11:51:35;;;;;;;5.90;4.15;;;9.60;99.90;;;;;;5003522;28;20029;-74
2023/12/09 11:54:10;;;;;;;6.70;4.00;;;9.50;99.90;;;;;;5003986;28;20069;-73
2023/12/09 11:56:37;;;;;;;7.47;4.20;;;9.50;99.90;;;;;;5004451;28;20026;-74
2023/12/09 11:59:05;;;;;;;7.80;4.88;;;9.40;99.90;;;;;;5003982;28;20066;-73
2023/12/09 12:01:31;;;;;;;7.90;4.65;;;9.30;99.90;;;;;;5004240;28;20022;-73
2023/12/09 12:03:58;;;;;;;7.80;4.70;;;9.40;99.90;;;;;;5004372;28;20030;-75
2023/12/09 12:06:27;;;;;;;8.82;4.22;;;9.50;99.90;;;;;;5003584;28;20041;-73
2023/12/09 12:08:53;;;;;;;6.60;3.85;;;9.70;99.90;;;;;;5004093;28;20037;-74
2023/12/09 12:11:21;;;;;;;5.25;3.45;;;10.00;99.90;;;;;;5003344;28;20030;-73
2023/12/09 12:13:48;;;;;;;4.70;2.83;;;10.20;99.90;;;;;;5001514;28;20034;-74
2023/12/09 12:16:14;;;;;;;4.85;2.40;;;10.10;99.90;;;;;;4974802;28;20072;-75
2023/12/09 12:18:40;;;;;;;4.63;2.50;;;10.10;99.90;;;;;;5003793;28;20296;-74
2023/12/09 12:21:07;;;;;;;4.82;2.70;;;10.20;99.90;;;;;;4991949;28;20040;-76
2023/12/09 12:23:33;;;;;;;4.57;2.50;;;10.20;99.90;;;;;;4976063;28;20023;-75
2023/12/09 12:25:59;;;;;;;4.82;2.40;;;10.30;99.90;;;;;;5003927;28;20037;-73
2023/12/09 12:28:25;;;;;;;4.20;2.40;;;10.10;99.90;;;;;;4987538;28;20086;-73
2023/12/09 12:30:56;;;;;;;3.17;1.90;;;10.10;99.90;;;;;;4984289;28;20035;-74
2023/12/09 12:33:26;;;;;;;4.05;2.22;;;10.10;99.90;;;;;;4999328;28;20097;-76
2023/12/09 12:35:55;;;;;;;4.07;1.92;;;10.00;99.90;;;;;;5003800;28;20081;-73
2023/12/09 12:38:25;;;;;;;4.47;1.98;;;9.90;99.90;;;;;;4985370;28;20062;-74
2023/12/09 12:40:52;;;;;;;3.20;1.60;;;9.90;99.90;;;;;;4985369;28;20055;-75
2023/12/09 12:43:18;;;;;;;2.60;1.50;;;9.90;99.90;;;;;;4983356;28;20031;-76
2023/12/09 12:45:53;;;;;;;4.30;1.60;;;9.80;99.90;;;;;;4984324;28;20026;-74
2023/12/09 12:48:19;;;;;;;2.78;1.45;;;9.90;99.90;;;;;;4992443;28;20029;-75
2023/12/09 12:50:48;;;;;;;3.28;1.50;;;10.30;99.90;;;;;;5003543;28;20034;-75
2023/12/09 12:53:16;;;;;;;3.47;1.45;;;10.70;99.90;;;;;;5002450;28;20235;-74
2023/12/09 12:55:42;;;;;;;3.65;2.05;;;10.90;99.90;;;;;;5003380;28;20022;-74
2023/12/09 12:58:09;;;;;;;3.17;1.55;;;10.80;99.90;;;;;;4989194;28;20269;-74
2023/12/09 13:00:34;;;;;;;2.72;1.45;;;10.60;99.90;;;;;;4985949;28;20081;-74
2023/12/09 13:03:00;;;;;;;4.30;1.63;;;10.30;99.90;;;;;;4985824;28;20034;-74
2023/12/09 13:05:26;;;;;;;3.17;1.48;;;10.20;99.90;;;;;;4981965;28;20026;-75
2023/12/09 13:07:52;;;;;;;3.05;1.48;;;10.10;99.90;;;;;;4988492;28;20026;-75
2023/12/09 13:10:18;;;;;;;3.05;1.42;;;9.90;99.90;;;;;;5002225;28;20029;-75
2023/12/09 13:12:44;;;;;;;3.40;1.63;;;10.00;99.90;;;;;;5003096;28;20220;-74
2023/12/09 13:15:10;;;;;;;3.72;1.30;;;10.00;99.90;;;;;;4985130;28;20041;-73
2023/12/09 13:17:37;;;;;;;2.97;1.55;;;10.00;99.90;;;;;;4985074;28;20038;-75
2023/12/09 13:20:03;;;;;;;2.97;1.50;;;9.80;99.90;;;;;;5003231;28;20030;-76
2023/12/09 13:22:30;;;;;;;3.13;1.60;;;9.70;99.90;;;;;;4996415;28;20270;-74
2023/12/09 13:24:56;;;;;;;3.53;1.70;;;9.50;99.90;;;;;;5002278;28;20026;-73
2023/12/09 13:27:22;;;;;;;2.53;1.40;;;9.40;99.90;;;;;;4990758;28;20047;-76
2023/12/09 13:29:48;;;;;;;3.13;1.63;;;9.30;99.90;;;;;;5000665;28;20019;-75
2023/12/09 13:32:15;;;;;;;4.78;1.85;;;9.30;99.90;;;;;;5002445;28;20022;-74
2023/12/09 13:34:41;;;;;;;4.78;1.60;;;9.30;99.90;;;;;;5002780;28;20118;-76
2023/12/09 13:37:07;;;;;;;3.63;1.92;;;9.20;99.90;;;;;;5003018;28;20081;-72
2023/12/09 13:39:33;;;;;;;4.03;1.88;;;9.10;99.90;;;;;;5002004;28;20038;-76
2023/12/09 13:42:00;;;;;;;3.58;1.60;;;9.00;99.90;;;;;;4985549;28;20078;-75
2023/12/09 13:44:26;;;;;;;3.30;1.80;;;9.00;99.90;;;;;;4982803;28;20093;-75
2023/12/09 13:46:51;;;;;;;4.03;2.00;;;9.00;99.90;;;;;;4983543;28;20029;-74
2023/12/09 13:49:17;;;;;;;2.75;1.67;;;8.90;99.90;;;;;;4985105;28;20216;-75
2023/12/09 13:51:43;;;;;;;3.35;1.98;;;8.90;99.90;;;;;;5002856;28;20023;-75
2023/12/09 13:54:09;;;;;;;4.20;1.70;;;8.90;99.90;;;;;;5002886;28;20030;-76
2023/12/09 13:56:35;;;;;;;5.05;1.80;;;8.80;99.90;;;;;;5002258;28;20240;-74
2023/12/09 13:59:02;;;;;;;4.28;1.80;;;8.80;99.90;;;;;;4988685;28;20026;-75
2023/12/09 14:01:28;;;;;;;3.97;1.90;;;8.70;99.90;;;;;;4994539;28;20316;-75
2023/12/09 14:03:54;;;;;;;3.85;2.03;;;8.60;99.90;;;;;;5002607;28;20084;-76
2023/12/09 14:06:20;;;;;;;4.00;1.88;;;8.60;99.90;;;;;;4984946;28;20022;-76
2023/12/09 14:08:46;;;;;;;4.15;1.90;;;8.50;99.90;;;;;;4995971;28;20031;-74
2023/12/09 14:11:14;;;;;;;4.18;1.85;;;8.50;99.90;;;;;;4982626;28;20033;-78
2023/12/09 14:13:40;;;;;;;4.75;2.10;;;8.50;99.90;;;;;;4983406;28;20042;-74
2023/12/09 14:16:09;;;;;;;3.70;2.17;;;8.50;99.90;;;;;;4983486;28;20067;-75
2023/12/09 14:18:39;;;;;;;4.43;2.17;;;8.50;99.90;;;;;;4984937;28;20031;-76
2023/12/09 14:21:07;;;;;;;4.07;2.08;;;8.40;99.90;;;;;;4986896;28;20033;-75
2023/12/09 14:23:33;;;;;;;4.90;2.50;;;8.40;99.90;;;;;;4986231;28;20073;-76
2023/12/09 14:26:00;;;;;;;5.35;1.98;;;8.40;99.90;;;;;;4997265;28;20125;-76
2023/12/09 14:28:25;;;;;;;4.90;1.83;;;8.50;99.90;;;;;;4988460;28;20032;-75
2023/12/09 14:30:52;;;;;;;4.00;2.15;;;8.50;99.90;;;;;;4988586;28;20046;-76
2023/12/09 14:33:18;;;;;;;3.95;2.05;;;8.50;99.90;;;;;;5005320;28;20041;-76
2023/12/09 14:35:43;;;;;;;3.85;1.85;;;8.50;99.90;;;;;;4988549;28;20022;-75
2023/12/09 14:38:09;;;;;;;4.32;1.90;;;8.50;99.90;;;;;;5005903;28;20036;-75
2023/12/09 14:40:35;;;;;;;4.22;2.13;;;8.50;99.90;;;;;;5003558;28;20097;-76
2023/12/09 14:43:06;;;;;;;3.80;2.00;;;8.50;99.90;;;;;;4989767;28;20034;-76
2023/12/09 14:45:33;;;;;;;4.65;2.00;;;8.50;99.90;;;;;;4985988;28;20060;-76
2023/12/09 14:47:59;;;;;;;4.05;2.00;;;8.50;99.90;;;;;;4988330;28;20038;-76
2023/12/09 14:50:25;;;;;;;4.22;1.90;;;8.40;99.90;;;;;;5000666;28;20046;-76
2023/12/09 14:52:51;;;;;;;4.18;2.17;;;8.40;99.90;;;;;;5002712;28;20014;-77
2023/12/09 14:55:17;;;;;;;5.05;2.40;;;8.30;99.90;;;;;;5005055;28;20036;-75
2023/12/09 14:57:43;;;;;;;4.60;2.30;;;8.30;99.90;;;;;;5000889;28;20043;-77
2023/12/09 15:00:10;;;;;;;6.57;2.80;;;8.20;99.90;;;;;;5005334;28;20022;-77
2023/12/09 15:02:36;;;;;;;3.63;2.15;;;8.20;99.90;;;;;;5005066;28;20098;-76
2023/12/09 15:05:02;;;;;;;4.63;2.38;;;8.10;99.90;;;;;;4988179;28;20023;-76
2023/12/09 15:07:28;;;;;;;4.43;2.70;;;8.10;99.90;;;;;;4987591;28;20042;-76
2023/12/09 15:10:00;;;;;;;5.55;2.95;;;8.10;99.90;;;;;;5005451;28;20037;-76
2023/12/09 15:12:26;;;;;;;7.93;3.33;;;8.00;99.90;;;;;;4987354;28;20042;-77
2023/12/09 15:14:52;;;;;;;9.02;3.67;;;8.00;99.90;;;;;;5000444;28;20022;-74
2023/12/09 15:17:18;;;;;;;7.03;3.35;;;7.90;99.90;;;;;;5004875;28;20260;-77
2023/12/09 15:19:44;;;;;;;8.55;3.05;;;7.90;99.90;;;;;;5005021;28;20041;-77
2023/12/09 15:22:11;;;;;;;5.82;2.72;;;7.90;99.90;;;;;;4987889;28;20303;-77
2023/12/09 15:24:38;;;;;;;6.43;3.10;;;7.90;99.90;;;;;;5004636;28;20045;-77
2023/12/09 15:27:04;;;;;;;5.63;3.00;;;7.80;99.90;;;;;;5004916;28;20026;-77
2023/12/09 15:29:29;;;;;;;6.63;2.80;;;7.80;99.90;;;;;;4970021;28;20119;-76
2023/12/09 15:31:55;;;;;;;4.47;2.88;;;7.80;99.90;;;;;;5000497;28;20324;-76
2023/12/09 15:34:21;;;;;;;5.45;2.75;;;7.80;99.90;;;;;;4987313;28;20097;-76
2023/12/09 15:36:47;;;;;;;5.93;3.00;;;7.80;99.90;;;;;;4987731;28;20053;-76
2023/12/09 15:39:16;;;;;;;4.82;2.78;;;7.80;99.90;;;;;;5004624;28;20383;-77
2023/12/09 15:41:42;;;;;;;5.20;2.90;;;7.70;99.90;;;;;;5004424;28;20046;-75
2023/12/09 15:44:07;;;;;;;6.50;3.15;;;7.70;99.90;;;;;;5004637;28;20034;-76
2023/12/09 15:46:34;;;;;;;5.30;3.00;;;7.70;99.90;;;;;;5005630;28;20029;-77
2023/12/09 15:49:00;;;;;;;5.65;3.58;;;7.70;99.90;;;;;;4996268;28;20037;-75
2023/12/09 15:51:26;;;;;;;6.32;3.15;;;7.70;99.90;;;;;;4994828;28;20033;-74
2023/12/09 15:53:52;;;;;;;6.38;3.67;;;7.60;99.90;;;;;;5004408;28;20097;-73
2023/12/09 15:56:18;;;;;;;5.32;3.53;;;7.60;99.90;;;;;;5004184;28;20014;-78
2023/12/09 15:58:44;;;;;;;7.50;3.33;;;7.50;99.90;;;;;;4970923;28;20036;-73
2023/12/09 16:01:10;;;;;;;5.82;3.45;;;7.50;99.90;;;;;;5004304;28;20232;-76
2023/12/09 16:03:36;;;;;;;8.13;3.55;;;7.50;99.90;;;;;;5004079;28;20022;-73
2023/12/09 16:06:02;;;;;;;5.40;3.38;;;7.40;99.90;;;;;;5000926;28;20022;-76
2023/12/09 16:08:28;;;;;;;5.10;3.75;;;7.40;99.90;;;;;;4984517;28;20331;-74
2023/12/09 16:10:53;;;;;;;5.85;3.30;;;7.40;99.90;;;;;;4996602;28;20026;-74
2023/12/09 16:13:21;;;;;;;6.28;3.38;;;7.40;99.90;;;;;;5003531;28;20045;-75
2023/12/09 16:15:47;;;;;;;6.18;3.58;;;7.30;99.90;;;;;;5003771;28;20030;-75
2023/12/09 16:18:13;;;;;;;5.97;3.60;;;7.30;99.90;;;;;;5003763;28;20247;-73
2023/12/09 16:20:39;;;;;;;7.57;3.58;;;7.30;99.90;;;;;;5003917;28;20400;-74
2023/12/09 16:23:05;;;;;;;7.10;4.20;;;7.30;99.90;;;;;;4999135;28;20208;-74
2023/12/09 16:25:31;;;;;;;6.55;3.75;;;7.30;99.90;;;;;;5003427;28;20041;-76
2023/12/09 16:27:57;;;;;;;6.65;3.90;;;7.30;99.90;;;;;;5003683;28;20057;-75
2023/12/09 16:30:23;;;;;;;6.70;3.78;;;7.30;99.90;;;;;;5003504;28;20038;-74
2023/12/09 16:32:49;;;;;;;7.60;3.72;;;7.30;99.90;;;;;;5003622;28;20046;-73
2023/12/09 16:35:16;;;;;;;8.30;4.07;;;7.20;99.90;;;;;;5003482;28;20343;-74
2023/12/09 16:37:42;;;;;;;8.23;4.38;;;7.20;99.90;;;;;;4985765;28;20185;-73
2023/12/09 16:40:10;;;;;;;8.93;4.43;;;7.20;99.90;;;;;;5001182;28;20284;-76
2023/12/09 16:42:37;;;;;;;;;;;7.30;99.90;;;;;;4967267;28;20117;-74
2023/12/09 16:45:04;;;;;;;9.25;3.90;;;7.30;99.90;;;;;;4997190;28;19906;-75
2023/12/09 16:47:33;;;;;;;6.20;3.33;;;7.30;99.90;;;;;;5003351;28;20018;-74
2023/12/09 16:50:04;;;;;;;7.78;4.10;;;7.30;99.90;;;;;;4985360;28;20026;-74
2023/12/09 16:52:30;;;;;;;5.93;3.13;;;7.30;99.90;;;;;;5003043;28;20054;-76
2023/12/09 16:54:55;;;;;;;5.35;3.40;;;7.30;99.90;;;;;;5003302;28;20053;-76
2023/12/09 16:57:31;;;;;;;6.47;3.30;;;7.30;99.90;;;;;;4994588;28;20292;-76
2023/12/09 16:59:57;;;;;;;7.13;3.78;;;7.30;99.90;;;;;;4994201;28;20101;-75
2023/12/09 17:02:23;;;;;;;6.78;3.58;;;7.30;99.90;;;;;;5002893;28;20026;-74
2023/12/09 17:04:49;;;;;;;5.20;2.95;;;7.20;99.90;;;;;;4985898;28;20050;-75
2023/12/09 17:07:15;;;;;;;5.60;2.95;;;7.30;99.90;;;;;;4983852;28;20018;-74
2023/12/09 17:09:42;;;;;;;6.07;3.35;;;7.30;99.90;;;;;;4983563;28;20065;-74
2023/12/09 17:12:08;;;;;;;5.50;3.00;;;7.30;99.90;;;;;;4983791;28;20212;-75
2023/12/09 17:14:34;;;;;;;6.60;3.10;;;7.30;99.90;;;;;;4982987;28;20297;-74
2023/12/09 17:17:03;;;;;;;5.22;2.53;;;7.30;99.90;;;;;;5000743;28;20029;-77
2023/12/09 17:19:29;;;;;;;5.03;2.95;;;7.30;99.90;;;;;;5002585;28;20085;-72
2023/12/09 17:21:55;;;;;;;6.25;3.10;;;7.30;99.90;;;;;;5003194;28;20309;-74
2023/12/09 17:24:21;;;;;;;4.82;2.95;;;7.20;99.90;;;;;;4985516;28;20221;-73
2023/12/09 17:26:47;;;;;;;5.07;2.60;;;7.20;99.90;;;;;;5002775;28;20033;-75
2023/12/09 17:29:12;;;;;;;4.85;3.17;;;7.20;99.90;;;;;;5001990;28;20026;-76
2023/12/09 17:31:38;;;;;;;5.10;2.30;;;7.20;99.90;;;;;;4985295;28;20054;-72
2023/12/09 17:34:05;;;;;;;5.15;2.70;;;7.20;99.90;;;;;;4985555;28;20026;-73
2023/12/09 17:36:31;;;;;;;4.20;2.58;;;7.20;99.90;;;;;;5002674;28;20284;-73
2023/12/09 17:38:56;;;;;;;4.32;2.47;;;7.20;99.90;;;;;;5002832;28;20102;-73
2023/12/09 17:41:22;;;;;;;5.35;2.70;;;7.20;99.90;;;;;;5003031;28;20189;-74
2023/12/09 17:43:48;;;;;;;5.30;2.50;;;7.20;99.90;;;;;;5000332;28;20019;-73
2023/12/09 17:46:19;;;;;;;4.20;2.60;;;7.20;99.90;;;;;;4984343;28;20034;-74
2023/12/09 17:48:45;;;;;;;3.97;2.17;;;7.20;99.90;;;;;;5002558;28;20097;-74
2023/12/09 17:51:10;;;;;;;4.00;2.00;;;7.20;99.90;;;;;;5003090;28;20300;-74
2023/12/09 17:53:36;;;;;;;8.13;4.20;;;7.20;99.90;;;;;;4985092;28;20027;-73
2023/12/09 17:56:02;;;;;;;6.10;2.58;;;7.30;99.90;;;;;;4987036;28;20224;-72
2023/12/09 17:58:28;;;;;;;5.38;2.72;;;7.30;99.90;;;;;;4986522;28;20030;-74
2023/12/09 18:00:54;;;;;;;3.60;2.03;;;7.30;99.90;;;;;;4987034;28;20284;-72
2023/12/09 18:03:20;;;;;;;3.63;2.00;;;7.40;99.90;;;;;;4996309;28;20030;-73
2023/12/09 18:05:47;;;;;;;4.18;2.20;;;7.40;99.90;;;;;;4988984;28;20207;-74
2023/12/09 18:08:13;;;;;;;6.20;3.22;;;7.30;99.90;;;;;;5006563;28;20026;-75
2023/12/09 18:10:39;;;;;;;5.18;2.70;;;7.30;99.90;;;;;;5004498;28;20029;-73
2023/12/09 18:13:04;;;;;;;6.93;2.60;;;7.30;99.90;;;;;;4993981;28;20026;-72
2023/12/09 18:15:30;;;;;;;4.30;1.95;;;7.30;99.90;;;;;;5005502;28;20018;-72
2023/12/09 18:17:57;;;;;;;4.13;2.05;;;7.30;99.90;;;;;;5005987;28;20038;-73
2023/12/09 18:20:23;;;;;;;5.10;1.90;;;7.40;99.90;;;;;;5006496;28;20029;-74
2023/12/09 18:22:48;;;;;;;4.47;2.08;;;7.50;99.90;;;;;;5005386;28;20022;-72
2023/12/09 18:25:14;;;;;;;4.57;2.15;;;7.50;99.90;;;;;;5006125;28;20034;-73
2023/12/09 18:27:40;;;;;;;8.07;2.55;;;7.50;99.90;;;;;;5005717;28;20121;-73
2023/12/09 18:30:07;;;;;;;3.92;1.52;;;7.50;99.90;;;;;;4988952;28;20026;-74
2023/12/09 18:32:37;;;;;;;3.97;1.80;;;7.60;99.90;;;;;;5005622;28;20081;-73
2023/12/09 18:35:08;;;;;;;4.97;2.20;;;7.60;99.90;;;;;;5001409;28;20056;-72
2023/12/09 18:37:36;;;;;;;4.38;1.92;;;7.50;99.90;;;;;;5005343;28;20032;-74
2023/12/09 18:40:05;;;;;;;7.03;2.40;;;7.50;99.90;;;;;;5005534;28;20065;-73
2023/12/09 18:42:32;;;;;;;4.45;1.65;;;7.40;99.90;;;;;;5005332;28;20089;-74
2023/12/09 18:44:58;;;;;;;6.55;1.52;;;7.40;99.90;;;;;;5005858;28;20037;-74
2023/12/09 18:47:24;;;;;;;6.63;2.03;;;7.40;99.90;;;;;;4972072;28;20030;-73
2023/12/09 18:49:51;;;;;;;4.25;1.65;;;7.30;99.90;;;;;;5005207;28;20022;-74
2023/12/09 18:52:17;;;;;;;3.58;1.60;;;7.30;99.90;;;;;;5003649;28;20026;-74
2023/12/09 18:54:43;;;;;;;4.22;1.40;;;7.30;99.90;;;;;;4985886;28;20339;-73
2023/12/09 18:57:09;;;;;;;4.05;1.92;;;7.30;99.90;;;;;;4991980;28;20022;-74
2023/12/09 18:59:34;;;;;;;3.88;1.80;;;7.30;99.90;;;;;;5005117;28;20223;-74
2023/12/09 19:02:00;;;;;;;6.50;1.80;;;7.30;99.90;;;;;;4988167;28;20346;-75
2023/12/09 19:04:26;;;;;;;3.55;1.55;;;7.30;99.90;;;;;;5005234;28;20376;-73
2023/12/09 19:06:53;;;;;;;3.90;1.65;;;7.40;99.90;;;;;;5004734;28;20057;-73
2023/12/09 19:09:18;;;;;;;2.35;0.70;;;7.40;99.90;;;;;;5002455;28;20042;-75
2023/12/09 19:11:44;;;;;;;2.85;1.30;;;7.50;99.90;;;;;;4987586;28;20019;-72
2023/12/09 19:14:10;;;;;;;3.15;1.60;;;7.50;99.90;;;;;;4985496;28;20030;-76
2023/12/09 19:16:36;;;;;;;3.25;1.00;;;7.60;99.90;;;;;;5002051;28;20096;-73
2023/12/09 19:19:02;;;;;;;2.55;1.00;;;7.70;99.90;;;;;;5004713;28;20275;-73
2023/12/09 19:21:27;;;;;;;5.68;1.20;;;7.80;99.90;;;;;;5004741;28;20030;-72
2023/12/09 19:23:53;;;;;;;6.63;1.30;;;7.90;99.90;;;;;;5004147;28;20304;-72
2023/12/09 19:26:19;;;;;;;2.00;0.82;;;7.80;99.90;;;;;;5005186;28;20030;-73
2023/12/09 19:28:45;;;;;;;2.78;1.00;;;7.90;99.90;;;;;;4999784;28;20362;-73
2023/12/09 19:31:14;;;;;;;2.25;1.20;;;8.00;99.90;;;;;;4987642;28;20244;-73
2023/12/09 19:33:40;;;;;;;2.47;1.10;;;8.00;99.90;;;;;;4987029;28;20022;-73
2023/12/09 19:36:06;;;;;;;2.65;1.00;;;8.00;99.90;;;;;;5004865;28;20292;-74
2023/12/09 19:38:32;;;;;;;1.58;0.60;;;8.10;99.90;;;;;;5004011;28;20227;-74
2023/12/09 19:40:57;;;;;;;1.75;0.47;;;8.20;99.90;;;;;;5004710;28;20293;-76
2023/12/09 19:43:23;;;;;;;1.40;0.60;;;8.20;99.90;;;;;;5004654;28;20093;-76
2023/12/09 19:45:49;;;;;;;1.95;0.70;;;8.10;99.90;;;;;;4997672;28;20286;-77
2023/12/09 19:48:15;;;;;;;1.50;0.60;;;8.20;99.90;;;;;;4993429;28;20022;-76
2023/12/09 19:50:41;;;;;;;1.95;0.70;;;8.10;99.90;;;;;;5003923;28;20113;-76
2023/12/09 19:53:07;;;;;;;1.92;0.90;;;8.10;99.90;;;;;;5002148;28;20304;-76
2023/12/09 19:55:34;;;;;;;1.42;0.50;;;8.10;99.90;;;;;;5003165;28;20257;-77
2023/12/09 19:58:01;;;;;;;1.88;0.60;;;8.10;99.90;;;;;;5005191;28;20060;-76
2023/12/09 20:00:27;;;;;;;1.55;0.52;;;8.10;99.90;;;;;;5005487;28;20053;-76
2023/12/09 20:02:53;;;;;;;1.35;0.35;;;8.10;99.90;;;;;;4987581;28;20018;-76
2023/12/09 20:05:19;;;;;;;1.63;0.50;;;8.10;99.90;;;;;;4988886;28;20027;-76
2023/12/09 20:07:44;;;;;;;1.88;0.60;;;8.10;99.90;;;;;;4950866;28;20026;-77
2023/12/09 20:10:10;;;;;;;1.75;0.60;;;8.10;99.90;;;;;;4995906;28;20026;-76
2023/12/09 20:12:37;;;;;;;1.38;0.50;;;8.10;99.90;;;;;;5003510;28;20026;-75
2023/12/09 20:15:05;;;;;;;1.38;0.55;;;8.10;99.90;;;;;;5003794;28;20034;-75
2023/12/09 20:17:31;;;;;;;1.70;0.60;;;8.10;99.90;;;;;;5003537;28;20236;-77
2023/12/09 20:19:57;;;;;;;1.70;0.63;;;8.00;99.90;;;;;;5003829;28;20042;-77
2023/12/09 20:22:23;;;;;;;3.25;0.60;;;8.00;99.90;;;;;;4994981;28;20054;-78
2023/12/09 20:24:49;;;;;;;1.10;0.50;;;8.00;99.90;;;;;;4966707;28;20035;-76
2023/12/09 20:27:15;;;;;;;1.75;0.70;;;8.00;99.90;;;;;;4995670;28;20033;-76
2023/12/09 20:29:40;;;;;;;2.17;0.50;;;8.00;99.90;;;;;;5003006;28;20220;-77
2023/12/09 20:32:06;;;;;;;1.70;0.63;;;8.10;99.90;;;;;;5003006;28;20026;-77
2023/12/09 20:34:32;;;;;;;1.65;0.40;;;8.10;99.90;;;;;;5002470;28;20037;-77
2023/12/09 20:36:59;;;;;;;1.88;0.65;;;8.10;99.90;;;;;;5003444;28;20035;-76
2023/12/09 20:39:24;;;;;;;1.50;0.50;;;8.10;99.90;;;;;;4975995;28;20380;-76
2023/12/09 20:41:50;;;;;;;3.25;0.63;;;8.10;99.90;;;;;;4984007;28;20122;-76
2023/12/09 20:44:16;;;;;;;1.50;0.70;;;8.10;99.90;;;;;;4966823;28;20045;-76
2023/12/09 20:46:48;;;;;;;3.70;0.80;;;8.10;99.90;;;;;;4983945;28;20093;-77
2023/12/09 20:49:16;;;;;;;1.40;0.60;;;8.10;99.90;;;;;;4987806;28;20026;-77
2023/12/09 20:51:45;;;;;;;;;;;8.10;99.90;;;;;;5002587;28;20247;-76
2023/12/09 20:54:11;;;;;;;1.35;0.50;;;8.10;99.90;;;;;;4997083;28;19965;-77
2023/12/09 20:56:36;;;;;;;1.38;0.50;;;8.10;99.90;;;;;;4983311;28;20308;-77
2023/12/09 20:59:04;;;;;;;2.88;0.70;;;8.10;99.90;;;;;;4983694;28;20035;-76